• Join FlightAware (Why Join?)
  • Login
  • US Flag 
06:37PM EDT


 

Airport Tracker/Info


-or-


 

Live Flight TrackerFlight Track Log ✈ GJS3615 ✈ 25-Apr-2013 ✈ KMSN - KORD

Flight Track Log - Related Links

Times and Time Zones

All times are in EDT time to prevent confusion due to time zone crossing. See the GJS3615 flight status page for this flight to view local times or setup timezone preferences in your user account.

Time Position Orientation Groundspeed Altitude Reporting Facility
EDT Latitude Longitude Course Direction KTS MPH feet Rate Location/Type
09:18AM 43.1664 -89.2644 164° South 200 230 4,100  Level Chicago Center
09:19AM 43.1561 -89.1669 98° East 240 276 6,400 2,640 Climbing Chicago Center
09:20AM 42.8390 -89.2167 180° South  Level FlightAware Approximate
09:20AM 43.1447 -89.0569 98° East 280 322 9,600  Level Chicago Center
09:21AM 42.7644 -89.1891 164° South  Level FlightAware Approximate
09:21AM 43.0742 -89.0050 152° Southeast 305 351 12,600  Level Chicago Center
09:22AM 42.6900 -89.1593 164° South  Level FlightAware Approximate
09:22AM 43.0131 -89.0678 217° Southwest 285 328 13,000  Level Chicago Center
09:23AM 42.6156 -89.1295 164° South  Level FlightAware Approximate
09:23AM 42.9256 -89.1036 197° South 303 349 13,100  Level Chicago Center
09:24AM 42.8400 -89.1047 181° South 309 356 13,000 -60 Descending Chicago Center
09:25AM 42.7508 -89.1047 180° South 318 366 13,000  Level Chicago Center
09:26AM 42.6544 -89.1058 180° South 344 396 13,100  Climbing Chicago Center
09:27AM 42.5539 -89.0678 164° South 395 455 13,000  Descending Chicago Center
09:28AM 42.4994 -88.9108 115° Southeast 399 459 13,100 -300 Climbing Chicago Center
09:29AM 42.4575 -88.7728 112° Southeast 398 458 12,400 -1,020 Descending Chicago Center
09:30AM 42.4164 -88.6358 112° Southeast 393 452 11,100 -1,140 Descending Chicago Center
09:31AM 42.3781 -88.5131 113° Southeast 365 420 10,100 -540 Descending Chicago Center
09:33AM 42.3394 -88.3936 114° Southeast 353 406 10,000 -60 Descending Chicago Center
09:34AM 42.2692 -88.2711 128° Southeast 363 418 10,000 -60 Level Chicago Center
09:35AM 42.2103 -88.1711 128° Southeast 343 395 9,900 -540 Descending Chicago Center
09:36AM 42.1514 -88.0964 137° Southeast 299 344 8,900 -1,020 Descending Chicago Center
09:37AM 42.1067 -88.0108 125° Southeast 290 334 7,900 -840 Descending Chicago Center
09:38AM 42.0833 -87.8833 104° East 260 299 7,000 -420 Descending Chicago TRACON
09:39AM 42.0667 -87.8000 105° East 254 292 7,000 -60 Level Chicago TRACON
09:40AM 42.0667 -87.7000 90° East 233 268 6,900 -780 Descending Chicago TRACON
09:41AM 42.0667 -87.6167 90° East 200 230 5,500 -1,020 Descending Chicago TRACON
09:42AM 42.0667 -87.5500 90° East 197 227 4,900 -780 Descending Chicago TRACON
09:43AM 42.0667 -87.4833 90° East 199 229 4,000 -480 Descending Chicago TRACON
09:44AM 42.0500 -87.4167 109° East 203 234 4,000  Level Chicago TRACON
09:45AM 42.0000 -87.4167 180° South 180 207 4,000  Level Chicago TRACON
09:46AM 41.9833 -87.4667 246° West 145 167 4,000  Level Chicago TRACON
09:47AM 41.9833 -87.5167 270° West 143 165 4,000  Level Chicago TRACON
09:48AM 41.9833 -87.5667 270° West 140 161 4,000  Level Chicago TRACON
09:49AM 41.9833 -87.6167 270° West 139 160 4,000  Level Chicago TRACON
09:50AM 41.9833 -87.6667 270° West 140 161 4,000 -420 Level Chicago TRACON
09:51AM 41.9833 -87.7167 270° West 144 166 3,300 -840 Descending Chicago TRACON
09:52AM 41.9833 -87.7833 270° West 142 163 2,300 -780 Descending Chicago TRACON
09:53AM 41.9833 -87.8333 270° West 116 133 1,600 -720 Descending Chicago TRACON